Time;durP1;ratioP1;P1;durP2;ratioP2;P2;SDS_P1;SDS_P2;PMS_P1;PMS_P2;Temp;Humidity;BMP_temperature;BMP_pressure;BME280_temperature;BME280_humidity;BME280_pressure;Samples;Min_cycle;Max_cycle;Signal;HPM_P1;HPM_P2
2021/09/26 00:00:25;;;;;;;5.50;4.95;;;16.80;99.90;;;;;;1858395;76;21084;-80
2021/09/26 00:02:51;;;;;;;5.95;4.78;;;16.80;99.90;;;;;;1862859;76;21165;-79
2021/09/26 00:05:18;;;;;;;7.22;4.67;;;16.80;99.90;;;;;;1857655;76;21211;-80
2021/09/26 00:07:44;;;;;;;8.80;5.17;;;16.80;99.90;;;;;;1862606;76;21178;-79
2021/09/26 00:10:10;;;;;;;4.78;4.12;;;16.80;99.90;;;;;;1868130;75;21469;-79
2021/09/26 00:12:36;;;;;;;7.10;4.37;;;16.70;99.90;;;;;;1854285;76;21586;-80
2021/09/26 00:15:02;;;;;;;7.53;5.03;;;16.80;99.90;;;;;;1868807;75;21453;-79
2021/09/26 00:17:28;;;;;;;7.70;5.00;;;16.70;99.90;;;;;;1868952;75;21453;-79
2021/09/26 00:19:54;;;;;;;7.60;4.85;;;16.70;99.90;;;;;;1863826;76;21462;-81
2021/09/26 00:22:20;;;;;;;5.72;4.60;;;16.80;99.90;;;;;;1868836;76;21100;-79
2021/09/26 00:24:47;;;;;;;7.72;5.10;;;16.80;99.90;;;;;;1863793;76;21456;-80
2021/09/26 00:27:14;;;;;;;14.53;7.83;;;16.80;99.90;;;;;;1863781;75;21191;-79
2021/09/26 00:29:40;;;;;;;8.35;4.75;;;16.70;99.90;;;;;;1858885;76;21065;-80
2021/09/26 00:32:07;;;;;;;8.75;5.33;;;16.80;99.90;;;;;;1858692;76;21136;-80
2021/09/26 00:34:33;;;;;;;5.65;4.55;;;16.80;99.90;;;;;;1863775;75;21081;-80
2021/09/26 00:36:59;;;;;;;8.05;5.10;;;16.90;99.90;;;;;;1863554;76;21205;-79
2021/09/26 00:39:25;;;;;;;6.35;4.62;;;16.80;99.90;;;;;;1863285;76;21089;-80
2021/09/26 00:41:51;;;;;;;9.63;5.47;;;16.80;99.90;;;;;;1853468;76;21057;-80
2021/09/26 00:44:17;;;;;;;8.68;5.03;;;16.70;99.90;;;;;;1858282;76;21092;-80
2021/09/26 00:46:43;;;;;;;7.83;5.37;;;16.70;99.90;;;;;;1863310;76;21096;-80
2021/09/26 00:49:09;;;;;;;7.58;5.05;;;16.60;99.90;;;;;;1863247;76;21084;-80
2021/09/26 00:51:35;;;;;;;6.45;4.85;;;16.60;99.90;;;;;;1866570;76;21134;-80
2021/09/26 00:54:02;;;;;;;8.90;4.92;;;16.70;99.90;;;;;;1859908;76;21096;-80
2021/09/26 00:56:28;;;;;;;6.45;5.15;;;16.70;99.90;;;;;;1858359;76;21080;-80
2021/09/26 00:58:54;;;;;;;5.90;4.72;;;16.60;99.90;;;;;;1858412;76;21092;-80
2021/09/26 01:01:20;;;;;;;10.85;4.70;;;16.60;99.90;;;;;;1858420;76;21119;-79
2021/09/26 01:03:46;;;;;;;5.25;4.35;;;16.60;99.90;;;;;;1863386;76;21288;-79
2021/09/26 01:06:12;;;;;;;5.80;4.75;;;16.50;99.90;;;;;;1867779;75;21150;-79
2021/09/26 01:08:38;;;;;;;7.00;5.00;;;16.50;99.90;;;;;;1858784;76;21101;-79
2021/09/26 01:11:05;;;;;;;7.33;5.47;;;16.50;99.90;;;;;;1858413;76;21080;-79
2021/09/26 01:13:31;;;;;;;5.62;4.90;;;16.60;99.90;;;;;;1857466;76;21642;-80
2021/09/26 01:15:57;;;;;;;8.10;5.33;;;16.60;99.90;;;;;;1863498;75;21577;-80
2021/09/26 01:18:25;;;;;;;6.72;5.33;;;16.50;99.90;;;;;;1863620;76;21088;-80
2021/09/26 01:20:51;;;;;;;5.62;5.00;;;16.50;99.90;;;;;;1867347;76;21226;-80
2021/09/26 01:23:17;;;;;;;6.08;5.03;;;16.50;99.90;;;;;;1868165;76;21084;-80
2021/09/26 01:25:43;;;;;;;10.75;5.12;;;16.60;99.90;;;;;;1864550;75;21174;-80
2021/09/26 01:28:09;;;;;;;7.17;4.78;;;16.60;99.90;;;;;;1856961;76;21142;-79
2021/09/26 01:30:35;;;;;;;6.72;4.80;;;16.60;99.90;;;;;;1863324;76;21429;-80
2021/09/26 01:33:01;;;;;;;6.33;4.65;;;16.60;99.90;;;;;;1855290;76;21550;-80
2021/09/26 01:35:28;;;;;;;9.53;5.10;;;16.60;99.90;;;;;;1868219;75;21484;-80
2021/09/26 01:37:54;;;;;;;6.03;4.60;;;16.60;99.90;;;;;;1861080;76;21558;-80
2021/09/26 01:40:20;;;;;;;7.62;4.87;;;16.50;99.90;;;;;;1858343;76;21583;-80
2021/09/26 01:42:46;;;;;;;10.25;5.17;;;16.40;99.90;;;;;;1861083;76;21136;-80
2021/09/26 01:45:12;;;;;;;6.60;4.83;;;16.30;99.90;;;;;;1860569;75;21240;-80
2021/09/26 01:47:38;;;;;;;7.05;4.85;;;16.30;99.90;;;;;;1866355;75;21088;-80
2021/09/26 01:50:05;;;;;;;10.50;5.28;;;16.10;99.90;;;;;;1860218;76;21166;-80
2021/09/26 01:52:31;;;;;;;7.17;5.28;;;16.00;99.90;;;;;;1853544;76;21089;-80
2021/09/26 01:54:57;;;;;;;7.00;4.95;;;16.00;99.90;;;;;;1862959;75;21143;-80
2021/09/26 01:57:23;;;;;;;7.95;5.00;;;16.00;99.90;;;;;;1853591;76;21088;-80
2021/09/26 01:59:49;;;;;;;8.20;4.78;;;16.00;99.90;;;;;;1863449;76;21311;-80
2021/09/26 02:02:15;;;;;;;9.95;5.35;;;16.00;99.90;;;;;;1869107;76;21061;-80
2021/09/26 02:04:41;;;;;;;6.12;4.92;;;15.90;99.90;;;;;;1869519;76;21508;-81
2021/09/26 02:07:08;;;;;;;7.78;5.47;;;15.80;99.90;;;;;;1866490;76;21147;-78
2021/09/26 02:09:34;;;;;;;9.23;5.20;;;15.80;99.90;;;;;;1857386;76;21092;-79
2021/09/26 02:12:00;;;;;;;8.28;4.78;;;15.80;99.90;;;;;;1854619;76;21058;-79
2021/09/26 02:14:26;;;;;;;6.85;4.72;;;15.60;99.90;;;;;;1859244;76;21675;-80
2021/09/26 02:16:52;;;;;;;13.18;4.95;;;15.60;99.90;;;;;;1858707;76;21282;-78
2021/09/26 02:19:18;;;;;;;6.62;5.40;;;15.60;99.90;;;;;;1873450;75;21093;-79
2021/09/26 02:21:44;;;;;;;8.73;5.25;;;15.60;99.90;;;;;;1858235;76;21211;-79
2021/09/26 02:24:10;;;;;;;9.20;5.83;;;15.60;99.90;;;;;;1858824;76;21100;-79
2021/09/26 02:26:37;;;;;;;8.05;5.12;;;15.50;99.90;;;;;;1863497;76;21084;-79
2021/09/26 02:29:03;;;;;;;7.47;5.33;;;15.40;99.90;;;;;;1858131;76;21104;-79
2021/09/26 02:31:29;;;;;;;7.17;5.08;;;15.40;99.90;;;;;;1863233;75;21244;-79
2021/09/26 02:33:55;;;;;;;9.15;5.10;;;15.40;99.90;;;;;;1858274;75;21099;-78
2021/09/26 02:36:22;;;;;;;5.70;5.05;;;15.40;99.90;;;;;;1858275;76;21166;-79
2021/09/26 02:38:48;;;;;;;7.75;5.25;;;15.40;99.90;;;;;;1854663;76;21096;-78
2021/09/26 02:41:14;;;;;;;7.08;5.42;;;15.40;99.90;;;;;;1864774;76;21100;-80
2021/09/26 02:43:40;;;;;;;6.00;4.72;;;15.40;99.90;;;;;;1863575;76;21084;-80
2021/09/26 02:46:06;;;;;;;7.33;5.45;;;15.40;99.90;;;;;;1868483;75;21092;-79
2021/09/26 02:48:32;;;;;;;7.75;5.37;;;15.40;99.90;;;;;;1866370;76;21088;-79
2021/09/26 02:50:59;;;;;;;5.75;5.15;;;15.40;99.90;;;;;;1858443;76;21093;-79
2021/09/26 02:53:26;;;;;;;5.33;4.70;;;15.40;99.90;;;;;;1863445;75;21093;-79
2021/09/26 02:55:53;;;;;;;9.10;5.00;;;15.40;99.90;;;;;;1858607;76;21097;-79
2021/09/26 02:58:19;;;;;;;9.43;5.22;;;15.40;99.90;;;;;;1853633;76;21100;-80
2021/09/26 03:00:46;;;;;;;7.72;5.78;;;15.40;99.90;;;;;;1863455;76;21061;-80
2021/09/26 03:03:12;;;;;;;11.15;4.92;;;15.20;99.90;;;;;;1858496;76;21155;-79
2021/09/26 03:05:38;;;;;;;6.60;4.70;;;15.30;99.90;;;;;;1868405;76;21855;-79
2021/09/26 03:08:04;;;;;;;6.85;5.20;;;15.40;99.90;;;;;;1863434;76;21618;-79
2021/09/26 03:10:30;;;;;;;7.33;5.05;;;15.30;99.90;;;;;;1873345;75;21062;-79
2021/09/26 03:12:56;;;;;;;9.00;4.65;;;15.30;99.90;;;;;;1858491;75;21089;-79
2021/09/26 03:15:22;;;;;;;6.78;5.10;;;15.30;99.90;;;;;;1858523;76;21069;-80
2021/09/26 03:17:48;;;;;;;6.12;5.30;;;15.20;99.90;;;;;;1858464;76;21150;-79
2021/09/26 03:20:15;;;;;;;6.72;4.90;;;15.20;99.90;;;;;;1863408;76;21131;-79
2021/09/26 03:22:41;;;;;;;14.13;5.22;;;15.10;99.90;;;;;;1872911;75;21096;-79
2021/09/26 03:25:07;;;;;;;11.00;4.97;;;15.20;99.90;;;;;;1857337;76;21096;-79
2021/09/26 03:27:33;;;;;;;6.90;5.08;;;15.30;99.90;;;;;;1853227;76;21508;-79
2021/09/26 03:29:59;;;;;;;9.45;5.40;;;15.20;99.90;;;;;;1869344;76;21512;-77
2021/09/26 03:32:25;;;;;;;7.28;5.85;;;15.20;99.90;;;;;;1866627;75;21481;-77
2021/09/26 03:34:51;;;;;;;6.28;5.00;;;15.20;99.90;;;;;;1853237;77;21563;-78
2021/09/26 03:37:18;;;;;;;8.55;5.22;;;15.20;99.90;;;;;;1853145;76;21577;-79
2021/09/26 03:39:44;;;;;;;7.33;5.22;;;15.20;99.90;;;;;;1864987;76;21092;-79
2021/09/26 03:42:10;;;;;;;5.37;4.47;;;15.10;99.90;;;;;;1865697;75;21166;-79
2021/09/26 03:44:36;;;;;;;7.58;4.87;;;15.20;99.90;;;;;;1863181;75;21392;-79
2021/09/26 03:47:02;;;;;;;6.70;5.22;;;15.10;99.90;;;;;;1853362;77;21092;-79
2021/09/26 03:49:28;;;;;;;6.20;4.92;;;15.10;99.90;;;;;;1858304;76;21150;-78
2021/09/26 03:51:55;;;;;;;10.15;5.05;;;15.20;99.90;;;;;;1858357;76;21100;-79
2021/09/26 03:54:21;;;;;;;8.58;5.33;;;15.20;99.90;;;;;;1866343;76;21154;-78
2021/09/26 03:56:48;;;;;;;6.33;4.45;;;15.30;99.90;;;;;;1864895;75;21205;-78
2021/09/26 03:59:15;;;;;;;5.00;4.55;;;15.30;99.90;;;;;;1853515;76;21096;-79
2021/09/26 04:01:41;;;;;;;5.40;4.90;;;15.20;99.90;;;;;;1858305;76;21284;-79
2021/09/26 04:04:07;;;;;;;5.20;4.35;;;15.20;99.90;;;;;;1863257;76;21112;-79
2021/09/26 04:06:33;;;;;;;5.40;4.90;;;15.10;99.90;;;;;;1862765;75;21150;-79
2021/09/26 04:08:59;;;;;;;13.58;4.65;;;15.10;99.90;;;;;;1858511;76;21158;-79
2021/09/26 04:11:25;;;;;;;6.60;4.53;;;15.10;99.90;;;;;;1863243;76;21154;-77
2021/09/26 04:13:51;;;;;;;8.73;4.30;;;15.10;99.90;;;;;;1858309;76;21116;-77
2021/09/26 04:16:17;;;;;;;8.58;4.85;;;15.00;99.90;;;;;;1868245;75;21159;-78
2021/09/26 04:18:43;;;;;;;7.30;5.28;;;15.10;99.90;;;;;;1858281;75;21092;-78
2021/09/26 04:21:10;;;;;;;7.67;5.10;;;15.10;99.90;;;;;;1868148;76;21191;-77
2021/09/26 04:23:36;;;;;;;6.00;5.00;;;15.10;99.90;;;;;;1858251;76;21160;-77
2021/09/26 04:26:02;;;;;;;10.15;4.62;;;15.10;99.90;;;;;;1863965;75;21198;-78
2021/09/26 04:28:28;;;;;;;8.58;6.12;;;15.10;99.90;;;;;;1863381;76;21096;-77
2021/09/26 04:30:54;;;;;;;8.03;6.17;;;15.00;99.90;;;;;;1868235;76;21201;-78
2021/09/26 04:33:20;;;;;;;7.20;5.75;;;15.00;99.90;;;;;;1861395;76;21170;-78
2021/09/26 04:35:46;;;;;;;6.17;5.58;;;14.90;99.90;;;;;;1853361;76;21532;-78
2021/09/26 04:38:12;;;;;;;11.55;6.22;;;14.80;99.90;;;;;;1853385;76;21492;-78
2021/09/26 04:40:41;;;;;;;6.28;5.60;;;14.90;99.90;;;;;;1858392;76;21477;-78
2021/09/26 04:43:06;;;;;;;7.87;5.37;;;14.90;99.90;;;;;;1863094;75;21363;-77
2021/09/26 04:45:33;;;;;;;9.50;5.87;;;14.80;99.90;;;;;;1868048;76;21096;-78
2021/09/26 04:47:59;;;;;;;8.20;5.83;;;14.80;99.90;;;;;;1858291;75;21178;-77
2021/09/26 04:50:25;;;;;;;7.65;5.90;;;14.80;99.90;;;;;;1867304;76;21162;-77
2021/09/26 04:52:51;;;;;;;11.48;5.97;;;14.80;99.90;;;;;;1857077;76;21096;-77
2021/09/26 04:55:17;;;;;;;7.60;6.03;;;14.70;99.90;;;;;;1854190;76;21201;-77
2021/09/26 04:57:43;;;;;;;8.90;6.15;;;14.60;99.90;;;;;;1858323;76;21219;-77
2021/09/26 05:00:09;;;;;;;6.65;5.33;;;14.60;99.90;;;;;;1853293;76;21097;-77
2021/09/26 05:02:35;;;;;;;8.85;5.47;;;14.70;99.90;;;;;;1868171;76;21476;-77
2021/09/26 05:05:02;;;;;;;11.15;6.03;;;14.70;99.90;;;;;;1867998;76;21582;-78
2021/09/26 05:07:28;;;;;;;5.92;5.35;;;14.70;99.90;;;;;;1858172;76;21150;-78
2021/09/26 05:09:54;;;;;;;7.60;5.50;;;14.60;99.90;;;;;;1863304;76;21156;-78
2021/09/26 05:12:20;;;;;;;7.40;5.28;;;14.60;99.90;;;;;;1863222;76;21090;-78
2021/09/26 05:14:46;;;;;;;8.35;5.10;;;14.60;99.90;;;;;;1863107;76;21088;-78
2021/09/26 05:17:12;;;;;;;7.00;5.15;;;14.60;99.90;;;;;;1863299;75;21170;-78
2021/09/26 05:19:38;;;;;;;8.80;5.87;;;14.50;99.90;;;;;;1853359;76;21213;-77
2021/09/26 05:22:04;;;;;;;6.03;4.72;;;14.60;99.90;;;;;;1853355;76;21101;-78
2021/09/26 05:24:31;;;;;;;6.50;4.87;;;14.60;99.90;;;;;;1858171;76;21154;-76
2021/09/26 05:26:57;;;;;;;8.78;4.80;;;14.50;99.90;;;;;;1853326;76;21512;-77
2021/09/26 05:29:23;;;;;;;5.78;4.78;;;14.50;99.90;;;;;;1858022;76;21496;-77
2021/09/26 05:31:49;;;;;;;5.35;4.53;;;14.50;99.90;;;;;;1858153;76;21469;-78
2021/09/26 05:34:16;;;;;;;7.40;4.75;;;14.40;99.90;;;;;;1858325;76;21519;-78
2021/09/26 05:36:42;;;;;;;6.33;4.83;;;14.40;99.90;;;;;;1858117;76;21216;-77
2021/09/26 05:39:08;;;;;;;6.92;4.80;;;14.50;99.90;;;;;;1858145;76;21162;-78
2021/09/26 05:41:34;;;;;;;11.63;5.58;;;14.50;99.90;;;;;;1868646;76;21154;-77
2021/09/26 05:44:00;;;;;;;6.35;4.75;;;14.50;99.90;;;;;;1863052;76;21062;-77
2021/09/26 05:46:26;;;;;;;7.03;5.28;;;14.60;99.90;;;;;;1853215;76;21158;-78
2021/09/26 05:48:52;;;;;;;9.20;5.25;;;14.60;99.90;;;;;;1858199;76;21175;-77
2021/09/26 05:51:18;;;;;;;8.50;4.85;;;14.60;99.90;;;;;;1858204;75;21166;-78
2021/09/26 05:53:45;;;;;;;6.67;4.97;;;14.60;99.90;;;;;;1853227;76;21066;-79
2021/09/26 05:56:13;;;;;;;6.50;4.97;;;14.60;99.90;;;;;;1858204;76;21578;-78
2021/09/26 05:58:39;;;;;;;8.65;5.75;;;14.70;99.90;;;;;;1862236;75;21214;-78
2021/09/26 06:01:05;;;;;;;8.10;6.15;;;14.70;99.90;;;;;;1868133;76;21095;-79
2021/09/26 06:03:31;;;;;;;14.23;5.67;;;14.70;99.90;;;;;;1858582;75;21097;-77
2021/09/26 06:05:57;;;;;;;8.63;5.40;;;14.70;99.90;;;;;;1858307;76;21100;-79
2021/09/26 06:08:26;;;;;;;6.72;4.80;;;14.80;99.90;;;;;;1853344;76;21508;-79
2021/09/26 06:10:51;;;;;;;5.50;4.92;;;14.80;99.90;;;;;;1852921;76;21173;-79
2021/09/26 06:13:17;;;;;;;7.72;5.50;;;14.90;99.90;;;;;;1853236;76;21175;-79
2021/09/26 06:15:43;;;;;;;7.33;5.25;;;14.90;99.90;;;;;;1863147;76;21162;-77
2021/09/26 06:18:09;;;;;;;6.22;5.20;;;14.80;99.90;;;;;;1854010;76;21092;-79
2021/09/26 06:20:35;;;;;;;9.10;6.15;;;14.80;99.90;;;;;;1867229;75;21169;-78
2021/09/26 06:23:01;;;;;;;12.55;5.58;;;15.00;99.90;;;;;;1863183;76;21158;-79
2021/09/26 06:25:28;;;;;;;10.20;6.25;;;15.10;99.90;;;;;;1862610;75;21092;-78
2021/09/26 06:27:54;;;;;;;8.30;6.65;;;15.20;99.90;;;;;;1862659;76;21162;-79
2021/09/26 06:30:20;;;;;;;9.85;6.78;;;15.10;99.90;;;;;;1853301;76;21100;-79
2021/09/26 06:32:46;;;;;;;9.35;6.28;;;15.10;99.90;;;;;;1853268;76;21166;-79
2021/09/26 06:35:13;;;;;;;10.20;5.75;;;15.20;99.90;;;;;;1863223;76;21065;-78
2021/09/26 06:37:39;;;;;;;10.50;5.62;;;15.20;99.90;;;;;;1853255;76;21084;-78
2021/09/26 06:42:50;;;;;;;6.40;4.60;;;15.40;99.90;;;;;;1930902;74;21157;-80
2021/09/26 06:45:16;;;;;;;5.20;4.37;;;15.50;99.90;;;;;;1927315;72;21080;-81
2021/09/26 06:47:42;;;;;;;6.67;4.80;;;15.50;99.90;;;;;;1925187;73;21146;-78
2021/09/26 06:50:09;;;;;;;11.38;4.83;;;15.60;99.90;;;;;;1919278;73;21092;-79
2021/09/26 06:52:35;;;;;;;11.05;4.72;;;15.80;99.90;;;;;;1931123;72;21068;-79
2021/09/26 06:55:01;;;;;;;6.83;4.78;;;16.00;99.90;;;;;;1911794;73;21162;-80
2021/09/26 06:57:27;;;;;;;9.25;5.30;;;16.00;99.90;;;;;;1910186;72;21206;-79
2021/09/26 06:59:54;;;;;;;7.35;5.42;;;16.20;99.90;;;;;;1918907;73;21168;-80
2021/09/26 07:02:23;;;;;;;11.20;6.40;;;16.20;99.90;;;;;;1918471;73;21092;-79
2021/09/26 07:04:50;;;;;;;9.60;6.10;;;16.30;99.90;;;;;;1926054;72;21360;-79
2021/09/26 07:07:16;;;;;;;17.37;6.62;;;16.40;99.90;;;;;;1914014;73;21092;-79
2021/09/26 07:09:43;;;;;;;7.58;5.62;;;16.50;99.90;;;;;;1942063;71;21263;-77
2021/09/26 07:12:09;;;;;;;7.42;5.87;;;16.60;99.90;;;;;;1930675;72;21186;-78
2021/09/26 07:14:35;;;;;;;9.40;6.20;;;16.70;99.90;;;;;;1912538;72;21080;-79
2021/09/26 07:17:01;;;;;;;14.68;6.45;;;16.70;99.90;;;;;;1908554;74;21093;-80
2021/09/26 07:19:27;;;;;;;10.53;6.25;;;16.70;99.90;;;;;;1914171;72;21077;-80
2021/09/26 07:21:53;;;;;;;8.85;5.97;;;17.00;99.90;;;;;;1930733;74;21084;-79
2021/09/26 07:24:19;;;;;;;6.53;5.03;;;17.20;99.90;;;;;;1927820;72;21081;-80
2021/09/26 07:26:45;;;;;;;13.00;5.30;;;17.50;99.90;;;;;;1930560;74;21063;-80
2021/09/26 07:29:12;;;;;;;6.15;5.47;;;17.60;99.90;;;;;;1923411;72;21160;-79
2021/09/26 07:31:38;;;;;;;6.65;5.50;;;17.80;99.90;;;;;;1895486;73;21146;-79
2021/09/26 07:34:05;;;;;;;12.58;5.42;;;18.00;99.90;;;;;;1891767;73;21151;-79
2021/09/26 07:36:31;;;;;;;6.95;5.33;;;18.10;99.90;;;;;;1902331;73;21201;-77
2021/09/26 07:38:57;;;;;;;6.03;5.20;;;18.20;99.90;;;;;;1890249;75;21120;-78
2021/09/26 07:41:23;;;;;;;8.25;5.45;;;18.50;99.90;;;;;;1891635;74;21157;-75
2021/09/26 07:43:49;;;;;;;8.03;5.37;;;18.60;99.90;;;;;;1891817;74;21154;-76
2021/09/26 07:46:16;;;;;;;8.60;5.50;;;18.80;99.90;;;;;;1893436;73;21072;-77
2021/09/26 07:48:42;;;;;;;6.92;5.45;;;18.80;99.90;;;;;;1904812;73;21052;-77
2021/09/26 07:51:08;;;;;;;7.50;5.62;;;18.90;99.90;;;;;;1891743;74;21086;-79
2021/09/26 07:53:34;;;;;;;8.13;4.97;;;18.90;99.90;;;;;;1891955;74;21083;-81
2021/09/26 07:56:00;;;;;;;6.00;5.30;;;19.00;99.90;;;;;;1896820;72;21148;-79
2021/09/26 07:58:27;;;;;;;5.87;4.65;;;19.20;99.90;;;;;;1891899;73;21133;-79
2021/09/26 08:00:53;;;;;;;5.90;4.70;;;19.50;99.90;;;;;;1900362;72;21069;-80
2021/09/26 08:03:19;;;;;;;7.50;4.85;;;19.50;99.90;;;;;;1892811;74;21146;-77
2021/09/26 08:05:45;;;;;;;4.55;4.10;;;19.60;99.90;;;;;;1886467;74;21165;-77
2021/09/26 08:08:11;;;;;;;9.73;4.83;;;19.70;99.90;;;;;;1905190;73;21148;-78
2021/09/26 08:10:37;;;;;;;4.50;4.10;;;19.80;99.90;;;;;;1891803;73;21194;-77
2021/09/26 08:13:06;;;;;;;6.53;4.87;;;19.70;99.90;;;;;;1891102;73;21188;-79
2021/09/26 08:15:31;;;;;;;6.83;4.75;;;19.70;99.90;;;;;;1902346;74;21079;-78
2021/09/26 08:17:57;;;;;;;6.28;4.70;;;19.80;99.90;;;;;;1896911;74;21141;-78
2021/09/26 08:20:24;;;;;;;5.15;4.25;;;20.00;99.90;;;;;;1912205;73;21126;-77
2021/09/26 08:22:52;;;;;;;5.75;4.35;;;20.20;99.90;;;;;;1896863;73;21166;-75
2021/09/26 08:25:18;;;;;;;15.10;4.75;;;20.80;99.90;;;;;;1902892;74;21458;-73
2021/09/26 08:27:44;;;;;;;6.62;4.45;;;21.40;99.90;;;;;;1900886;73;21493;-74
2021/09/26 08:30:10;;;;;;;7.12;4.22;;;21.70;99.90;;;;;;1901836;73;21548;-74
2021/09/26 08:32:36;;;;;;;7.28;4.15;;;22.00;99.90;;;;;;1896904;74;21503;-75
2021/09/26 08:35:02;;;;;;;6.33;4.03;;;22.20;99.90;;;;;;1901576;73;21074;-76
2021/09/26 08:37:30;;;;;;;8.38;3.80;;;22.20;99.90;;;;;;1896895;73;21090;-75
2021/09/26 08:39:56;;;;;;;6.53;3.50;;;22.30;99.90;;;;;;1891843;74;21084;-77
2021/09/26 08:42:22;;;;;;;7.20;3.80;;;22.30;99.90;;;;;;1886608;73;21088;-77
2021/09/26 08:44:49;;;;;;;4.80;3.40;;;22.30;99.90;;;;;;1900002;73;21148;-77
2021/09/26 08:47:15;;;;;;;6.03;3.90;;;22.00;99.90;;;;;;1893550;74;21152;-74
2021/09/26 08:49:41;;;;;;;8.28;4.22;;;21.90;99.90;;;;;;1900988;74;21040;-75
2021/09/26 08:52:07;;;;;;;8.08;4.30;;;21.60;99.90;;;;;;1901959;73;21191;-75
2021/09/26 08:54:33;;;;;;;5.47;3.90;;;21.30;99.90;;;;;;1894691;73;21071;-77
2021/09/26 08:56:59;;;;;;;5.10;3.50;;;21.20;99.90;;;;;;1892826;73;21160;-75
2021/09/26 08:59:25;;;;;;;4.78;4.03;;;21.30;99.90;;;;;;1891911;73;21285;-75
2021/09/26 09:01:51;;;;;;;8.65;4.53;;;21.20;99.90;;;;;;1891821;73;21084;-75
2021/09/26 09:04:18;;;;;;;4.42;3.50;;;21.10;99.90;;;;;;1901601;73;21071;-77
2021/09/26 09:06:44;;;;;;;5.33;3.60;;;21.10;99.90;;;;;;1893993;73;21150;-76
2021/09/26 09:09:10;;;;;;;9.88;3.62;;;21.20;99.90;;;;;;1882699;75;21045;-77
2021/09/26 09:11:36;;;;;;;6.47;3.90;;;21.20;99.90;;;;;;1855465;74;21476;-77
2021/09/26 09:14:02;;;;;;;4.28;3.72;;;21.10;99.90;;;;;;1883135;75;21594;-76
2021/09/26 09:16:28;;;;;;;9.15;4.15;;;21.10;99.90;;;;;;1881949;75;21512;-75
2021/09/26 09:18:56;;;;;;;7.00;3.83;;;21.00;99.90;;;;;;1861251;74;21480;-76
2021/09/26 09:21:22;;;;;;;21.35;5.37;;;21.00;99.90;;;;;;1879227;74;21091;-76
2021/09/26 09:23:48;;;;;;;7.15;3.90;;;20.90;99.90;;;;;;1874068;74;21145;-76
2021/09/26 09:26:14;;;;;;;7.92;3.92;;;21.00;99.90;;;;;;1867360;74;21512;-76
2021/09/26 09:28:41;;;;;;;4.87;3.87;;;21.10;99.90;;;;;;1855189;74;21499;-74
2021/09/26 09:31:07;;;;;;;7.58;4.00;;;21.10;99.90;;;;;;1859905;74;21061;-75
2021/09/26 09:33:33;;;;;;;9.18;3.95;;;21.10;99.90;;;;;;1860052;74;21224;-80
2021/09/26 09:35:59;;;;;;;11.15;4.08;;;21.30;99.90;;;;;;1862947;75;21146;-80
2021/09/26 09:38:25;;;;;;;3.98;3.58;;;21.30;99.90;;;;;;1882218;75;21158;-80
2021/09/26 09:40:51;;;;;;;5.65;3.85;;;21.50;99.90;;;;;;1882648;74;21150;-80
2021/09/26 09:43:17;;;;;;;5.45;3.95;;;21.70;99.90;;;;;;1878261;74;21131;-80
2021/09/26 09:45:43;;;;;;;8.15;4.25;;;21.80;99.90;;;;;;1860875;74;21088;-81
2021/09/26 09:48:10;;;;;;;6.45;3.92;;;21.70;99.90;;;;;;1855238;74;21099;-80
2021/09/26 09:50:36;;;;;;;7.17;3.83;;;21.30;99.90;;;;;;1882103;74;21617;-80
2021/09/26 09:53:04;;;;;;;6.40;3.70;;;21.20;99.90;;;;;;1877971;74;21453;-80
2021/09/26 09:55:30;;;;;;;7.62;3.72;;;21.10;99.90;;;;;;1860180;74;21091;-82
2021/09/26 09:57:58;;;;;;;6.10;4.00;;;21.10;99.90;;;;;;1874592;74;21159;-82
2021/09/26 10:00:24;;;;;;;3.98;3.60;;;21.00;99.90;;;;;;1855359;74;21061;-81
2021/09/26 10:02:50;;;;;;;5.83;3.60;;;21.00;99.90;;;;;;1855477;74;21177;-82
2021/09/26 10:05:16;;;;;;;5.35;4.17;;;20.90;99.90;;;;;;1861221;74;21099;-81
2021/09/26 10:07:42;;;;;;;4.78;3.80;;;20.90;99.90;;;;;;1882768;74;21092;-81
2021/09/26 10:10:08;;;;;;;8.43;4.25;;;20.90;99.90;;;;;;1882556;75;21189;-82
2021/09/26 10:12:35;;;;;;;6.70;4.50;;;20.90;99.90;;;;;;1863417;74;21479;-81
2021/09/26 10:15:01;;;;;;;7.67;4.50;;;20.80;99.90;;;;;;1855874;73;21087;-83
2021/09/26 10:17:27;;;;;;;7.97;5.12;;;20.70;99.90;;;;;;1872060;74;21080;-82
2021/09/26 10:19:53;;;;;;;10.63;5.58;;;20.60;99.90;;;;;;1882519;75;21138;-84
2021/09/26 10:22:19;;;;;;;7.92;5.47;;;20.50;99.90;;;;;;1883714;75;21089;-78
2021/09/26 10:24:45;;;;;;;7.22;5.10;;;20.50;99.90;;;;;;1883609;74;21126;-81
2021/09/26 10:27:13;;;;;;;6.22;4.80;;;20.60;99.90;;;;;;1875724;74;21492;-82
2021/09/26 10:29:40;;;;;;;6.97;5.10;;;20.60;99.90;;;;;;1877309;74;21092;-80
2021/09/26 10:32:06;;;;;;;7.65;5.55;;;20.60;99.90;;;;;;1875537;74;21096;-80
2021/09/26 10:34:33;;;;;;;7.65;5.85;;;20.70;99.90;;;;;;1855433;74;21326;-81
2021/09/26 10:37:00;;;;;;;9.03;5.10;;;20.80;99.90;;;;;;1869487;74;21084;-82
2021/09/26 10:39:26;;;;;;;5.03;4.53;;;20.50;99.90;;;;;;1873407;74;21080;-80
2021/09/26 10:41:52;;;;;;;6.95;5.30;;;20.50;99.90;;;;;;1868766;74;21161;-80
2021/09/26 10:44:18;;;;;;;5.62;5.10;;;20.60;99.90;;;;;;1870054;74;21053;-82
2021/09/26 10:46:44;;;;;;;5.65;5.15;;;20.50;99.90;;;;;;1879617;74;21220;-75
2021/09/26 10:49:10;;;;;;;6.78;5.85;;;20.40;99.90;;;;;;1878804;74;21147;-82
2021/09/26 10:51:36;;;;;;;7.00;5.37;;;20.50;99.90;;;;;;1865409;74;21505;-83
2021/09/26 10:54:03;;;;;;;5.80;4.85;;;20.50;99.90;;;;;;1865616;74;21542;-83
2021/09/26 10:56:31;;;;;;;11.90;5.22;;;20.50;99.90;;;;;;1882737;74;21476;-83
2021/09/26 10:58:56;;;;;;;7.22;5.30;;;20.60;99.90;;;;;;1866822;74;21088;-81
2021/09/26 11:01:23;;;;;;;7.22;5.42;;;20.60;99.90;;;;;;1859385;73;21174;-81
2021/09/26 11:03:49;;;;;;;7.67;6.22;;;20.60;99.90;;;;;;1862149;74;21146;-81
2021/09/26 11:06:15;;;;;;;5.20;4.70;;;20.70;99.90;;;;;;1874088;74;21166;-82
2021/09/26 11:08:41;;;;;;;9.53;5.70;;;20.60;99.90;;;;;;1869367;74;21162;-83
2021/09/26 11:11:08;;;;;;;6.70;4.92;;;20.50;99.90;;;;;;1864749;74;21088;-81
2021/09/26 11:13:34;;;;;;;8.08;5.50;;;20.40;99.90;;;;;;1873945;74;21084;-83
2021/09/26 11:16:00;;;;;;;6.67;5.25;;;20.20;99.90;;;;;;1862019;75;21061;-81
2021/09/26 11:18:27;;;;;;;10.75;5.03;;;20.40;99.90;;;;;;1867270;74;21150;-81
2021/09/26 11:20:53;;;;;;;6.45;5.45;;;20.50;99.90;;;;;;1866711;74;21157;-81
2021/09/26 11:23:19;;;;;;;11.12;8.00;;;20.60;99.90;;;;;;1867350;74;21123;-80
2021/09/26 11:25:45;;;;;;;6.83;5.70;;;20.60;99.90;;;;;;1873950;74;21092;-81
2021/09/26 11:28:11;;;;;;;8.15;5.92;;;20.60;99.90;;;;;;1878842;74;21177;-81
2021/09/26 11:30:38;;;;;;;10.50;6.50;;;20.50;99.90;;;;;;1882816;74;21092;-82
2021/09/26 11:33:04;;;;;;;8.73;6.33;;;20.30;99.90;;;;;;1874429;74;21508;-82
2021/09/26 11:35:30;;;;;;;6.97;5.72;;;20.40;99.90;;;;;;1873166;74;21564;-80
2021/09/26 11:37:59;;;;;;;10.93;7.15;;;20.50;99.90;;;;;;1874490;74;21118;-81
2021/09/26 11:40:29;;;;;;;9.10;6.42;;;20.60;99.90;;;;;;1864533;74;21150;-82
2021/09/26 11:42:52;;;;;;;7.25;5.65;;;20.60;99.90;;;;;;1860488;74;21173;-81
2021/09/26 11:45:19;;;;;;;11.78;7.03;;;20.50;99.90;;;;;;1868200;74;21095;-81
2021/09/26 11:47:45;;;;;;;9.10;6.47;;;20.70;99.90;;;;;;1860136;74;21224;-81
2021/09/26 11:50:11;;;;;;;9.03;6.12;;;20.70;99.90;;;;;;1871039;74;21080;-85
2021/09/26 11:52:39;;;;;;;11.73;7.10;;;20.40;99.90;;;;;;1873824;74;21150;-80
2021/09/26 11:55:05;;;;;;;6.22;5.62;;;20.60;99.90;;;;;;1862578;74;21141;-81
2021/09/26 11:57:31;;;;;;;9.30;5.60;;;20.40;99.90;;;;;;1872049;74;21153;-80
2021/09/26 11:59:57;;;;;;;7.83;6.47;;;20.70;99.90;;;;;;1861972;74;21088;-81
2021/09/26 12:02:25;;;;;;;7.40;5.92;;;20.70;99.90;;;;;;1876359;74;21088;-80
2021/09/26 12:04:51;;;;;;;9.93;6.70;;;20.70;99.90;;;;;;1873995;73;21128;-80
2021/09/26 12:07:17;;;;;;;8.80;5.45;;;20.70;99.90;;;;;;1866113;74;21095;-80
2021/09/26 12:09:44;;;;;;;16.23;9.95;;;20.40;99.90;;;;;;1869483;74;21142;-79
2021/09/26 12:12:10;;;;;;;6.83;6.05;;;20.60;99.90;;;;;;1864074;74;21080;-79
2021/09/26 12:14:36;;;;;;;9.25;5.72;;;20.80;99.90;;;;;;1873967;74;21175;-80
2021/09/26 12:17:02;;;;;;;6.83;5.47;;;20.90;99.90;;;;;;1882914;74;21170;-80
2021/09/26 12:19:28;;;;;;;5.53;4.78;;;21.00;99.90;;;;;;1864428;74;21088;-80
2021/09/26 12:21:54;;;;;;;12.45;5.50;;;21.20;99.90;;;;;;1855243;74;21080;-79
2021/09/26 12:24:20;;;;;;;7.10;5.45;;;21.50;99.90;;;;;;1864554;74;21077;-81
2021/09/26 12:26:46;;;;;;;7.78;5.37;;;21.50;99.90;;;;;;1882833;75;21170;-79
2021/09/26 12:29:13;;;;;;;9.28;6.30;;;21.60;99.90;;;;;;1874426;74;21154;-79
2021/09/26 12:31:39;;;;;;;8.35;5.53;;;21.90;99.90;;;;;;1872312;74;21170;-79
2021/09/26 12:34:05;;;;;;;8.10;5.78;;;22.10;99.90;;;;;;1860464;74;21182;-80
2021/09/26 12:36:32;;;;;;;6.33;4.85;;;22.60;99.90;;;;;;1855421;74;21147;-79
2021/09/26 12:38:58;;;;;;;8.33;5.62;;;22.60;99.90;;;;;;1857050;74;21091;-81
2021/09/26 12:41:24;;;;;;;5.00;4.20;;;22.60;99.90;;;;;;1874711;74;21088;-80